Time;durP1;ratioP1;P1;durP2;ratioP2;P2;SDS_P1;SDS_P2;PMS_P1;PMS_P2;Temp;Humidity;BMP_temperature;BMP_pressure;BME280_temperature;BME280_humidity;BME280_pressure;Samples;Min_cycle;Max_cycle;Signal;HPM_P1;HPM_P2
2022/03/11 00:01:10;;;;;;;;;;;8.80;91.50;;;;;;5059861;28;19908;-83
2022/03/11 00:03:36;;;;;;;;;;;8.80;91.50;;;;;;5077639;28;19912;-81
2022/03/11 00:06:01;;;;;;;;;;;8.70;91.50;;;;;;5059932;28;20274;-81
2022/03/11 00:08:27;;;;;;;;;;;8.70;91.70;;;;;;5059689;28;19930;-83
2022/03/11 00:10:53;;;;;;;;;;;8.70;91.70;;;;;;5078154;28;20389;-83
2022/03/11 00:13:18;;;;;;;;;;;8.60;91.70;;;;;;5077919;28;20397;-83
2022/03/11 00:15:44;;;;;;;;;;;8.60;91.80;;;;;;5059187;28;19917;-83
2022/03/11 00:18:10;;;;;;;;;;;8.60;92.00;;;;;;5059867;28;20420;-82
2022/03/11 00:20:36;;;;;;;;;;;8.50;92.10;;;;;;5078148;28;19908;-82
2022/03/11 00:23:01;;;;;;;;;;;8.50;92.20;;;;;;5077260;28;19912;-83
2022/03/11 00:25:29;;;;;;;;;;;8.40;92.20;;;;;;5077884;28;19909;-83
2022/03/11 00:27:55;;;;;;;;;;;8.40;92.20;;;;;;5059621;28;19971;-82
2022/03/11 00:30:20;;;;;;;;;;;8.40;92.30;;;;;;5059969;28;20394;-82
2022/03/11 00:32:47;;;;;;;;;;;8.40;92.40;;;;;;5072508;28;19908;-83
2022/03/11 00:35:13;;;;;;;;;;;8.30;92.40;;;;;;5059724;28;19915;-83
2022/03/11 00:37:39;;;;;;;;;;;8.30;92.40;;;;;;5071628;28;19908;-83
2022/03/11 00:40:06;;;;;;;;;;;8.30;92.40;;;;;;5076171;28;19972;-82
2022/03/11 00:42:31;;;;;;;;;;;8.20;92.40;;;;;;5077610;28;20003;-83
2022/03/11 00:44:57;;;;;;;;;;;8.20;92.50;;;;;;5077556;28;19940;-83
2022/03/11 00:47:23;;;;;;;;;;;8.20;92.60;;;;;;5077487;28;19913;-82
2022/03/11 00:49:48;;;;;;;;;;;8.20;92.60;;;;;;5059858;28;20363;-83
2022/03/11 00:52:14;;;;;;;;;;;8.20;92.60;;;;;;5077304;28;19912;-83
2022/03/11 00:54:39;;;;;;;;;;;8.20;92.60;;;;;;5059292;28;20354;-84
2022/03/11 00:57:05;;;;;;;;;;;8.20;92.70;;;;;;5077290;28;19936;-83
2022/03/11 00:59:31;;;;;;;;;;;8.30;92.70;;;;;;5077425;28;20425;-83
2022/03/11 01:01:56;;;;;;;;;;;8.30;92.60;;;;;;5077178;28;19912;-84
2022/03/11 01:04:22;;;;;;;;;;;8.30;92.50;;;;;;5077176;28;20365;-83
2022/03/11 01:06:48;;;;;;;;;;;8.30;92.40;;;;;;5059025;28;20399;-83
2022/03/11 01:09:13;;;;;;;;;;;8.30;92.50;;;;;;5076931;28;19975;-83
2022/03/11 01:11:39;;;;;;;;;;;8.30;92.40;;;;;;5077263;28;19916;-82
2022/03/11 01:14:05;;;;;;;;;;;8.30;92.60;;;;;;5059325;28;19916;-83
2022/03/11 01:16:31;;;;;;;;;;;8.30;92.50;;;;;;5077410;28;19958;-83
2022/03/11 01:18:56;;;;;;;;;;;8.30;92.50;;;;;;5077228;28;19908;-82
2022/03/11 01:21:22;;;;;;;;;;;8.30;92.50;;;;;;5077058;28;19913;-82
2022/03/11 01:23:48;;;;;;;;;;;8.30;92.60;;;;;;5076931;28;19908;-82
2022/03/11 01:26:13;;;;;;;;;;;8.30;92.70;;;;;;5077040;28;19947;-82
2022/03/11 01:28:41;;;;;;;;;;;8.30;92.70;;;;;;5080216;28;19909;-83
2022/03/11 01:31:08;;;;;;;;;;;8.30;92.80;;;;;;5062092;28;20287;-83
2022/03/11 01:33:33;;;;;;;;;;;8.30;92.80;;;;;;5076469;28;20315;-83
2022/03/11 01:35:59;;;;;;;;;;;8.30;92.90;;;;;;5062495;28;19908;-84
2022/03/11 01:38:25;;;;;;;;;;;8.30;93.00;;;;;;5080460;28;20363;-83
2022/03/11 01:40:51;;;;;;;;;;;8.30;93.10;;;;;;5078957;28;19909;-83
2022/03/11 01:43:17;;;;;;;;;;;8.30;93.10;;;;;;5080596;28;19919;-82
2022/03/11 01:45:43;;;;;;;;;;;8.30;93.00;;;;;;5080308;28;19920;-82
2022/03/11 01:48:09;;;;;;;;;;;8.40;93.20;;;;;;5080499;28;19916;-83
2022/03/11 01:50:35;;;;;;;;;;;8.30;93.20;;;;;;5062459;28;20402;-82
2022/03/11 01:53:01;;;;;;;;;;;8.40;93.30;;;;;;5080166;28;19908;-82
2022/03/11 01:55:26;;;;;;;;;;;8.40;93.30;;;;;;5062532;28;19916;-82
2022/03/11 01:57:52;;;;;;;;;;;8.50;93.50;;;;;;5080401;28;20322;-83
2022/03/11 02:00:17;;;;;;;;;;;8.50;93.30;;;;;;5080111;28;19931;-83
2022/03/11 02:02:43;;;;;;;;;;;8.50;93.20;;;;;;5080015;28;20290;-82
2022/03/11 02:05:09;;;;;;;;;;;8.50;93.30;;;;;;5080107;28;19908;-82
2022/03/11 02:07:35;;;;;;;;;;;8.60;93.30;;;;;;5061662;28;19916;-82
2022/03/11 02:10:00;;;;;;;;;;;8.60;93.30;;;;;;5080213;28;19908;-84
2022/03/11 02:12:36;;;;;;;;;;;8.60;93.30;;;;;;5061875;28;20009;-83
2022/03/11 02:15:04;;;;;;;;;;;8.70;93.40;;;;;;5079767;28;19908;-83
2022/03/11 02:17:30;;;;;;;;;;;8.70;93.50;;;;;;5080296;28;19908;-84
2022/03/11 02:19:55;;;;;;;;;;;8.70;93.40;;;;;;5079619;28;19987;-83
2022/03/11 02:22:22;;;;;;;;;;;8.70;93.40;;;;;;5079582;28;19912;-85
2022/03/11 02:24:48;;;;;;;;;;;8.80;93.40;;;;;;5079360;28;20423;-83
2022/03/11 02:27:14;;;;;;;;;;;8.80;93.40;;;;;;5080081;28;19952;-84
2022/03/11 02:29:40;;;;;;;;;;;8.80;93.40;;;;;;5061407;28;20283;-84
2022/03/11 02:32:06;;;;;;;;;;;8.80;93.40;;;;;;5074725;28;19915;-84
2022/03/11 02:34:31;;;;;;;;;;;8.80;93.40;;;;;;5079314;28;19988;-84
2022/03/11 02:36:57;;;;;;;;;;;8.80;93.40;;;;;;5079450;28;19908;-85
2022/03/11 02:39:23;;;;;;;;;;;8.80;93.50;;;;;;5076494;28;19909;-84
2022/03/11 02:41:51;;;;;;;;;;;8.80;93.50;;;;;;5079390;28;19920;-83
2022/03/11 02:44:17;;;;;;;;;;;8.80;93.50;;;;;;5079179;28;20379;-84
2022/03/11 02:46:42;;;;;;;;;;;8.80;93.50;;;;;;5079118;28;20015;-84
2022/03/11 02:49:08;;;;;;;;;;;8.80;93.50;;;;;;5079192;28;19986;-84
2022/03/11 02:51:34;;;;;;;;;;;8.80;93.50;;;;;;5079419;28;19912;-84
2022/03/11 02:53:59;;;;;;;;;;;8.80;93.50;;;;;;5078695;28;19912;-86
2022/03/11 02:56:25;;;;;;;;;;;8.80;93.50;;;;;;5079399;28;19909;-83
2022/03/11 02:58:51;;;;;;;;;;;8.90;93.70;;;;;;5078940;28;19909;-84
2022/03/11 03:01:16;;;;;;;;;;;8.90;93.70;;;;;;5079159;28;20379;-84
2022/03/11 03:03:42;;;;;;;;;;;8.90;93.70;;;;;;5074499;28;19913;-83
2022/03/11 03:06:08;;;;;;;;;;;8.90;93.70;;;;;;5079203;28;19950;-84
2022/03/11 03:08:34;;;;;;;;;;;8.90;93.70;;;;;;5078371;28;19909;-84
2022/03/11 03:10:59;;;;;;;;;;;8.90;93.60;;;;;;5060757;28;19958;-84
2022/03/11 03:13:25;;;;;;;;;;;8.90;93.60;;;;;;5078606;28;19951;-85
2022/03/11 03:15:51;;;;;;;;;;;8.90;93.60;;;;;;5078963;28;19915;-85
2022/03/11 03:18:17;;;;;;;;;;;8.90;93.60;;;;;;5078507;28;19908;-84
2022/03/11 03:20:42;;;;;;;;;;;8.90;93.60;;;;;;5079016;28;19908;-84
2022/03/11 03:23:08;;;;;;;;;;;8.90;93.70;;;;;;5078077;28;20291;-84
2022/03/11 03:25:34;;;;;;;;;;;8.90;93.80;;;;;;5078730;28;19967;-84
2022/03/11 03:27:59;;;;;;;;;;;8.90;93.70;;;;;;5078371;28;19915;-85
2022/03/11 03:30:25;;;;;;;;;;;8.90;93.80;;;;;;5078680;28;20382;-84
2022/03/11 03:32:51;;;;;;;;;;;8.90;93.80;;;;;;5073336;28;19915;-85
2022/03/11 03:35:17;;;;;;;;;;;8.90;93.90;;;;;;5078742;28;20378;-85
2022/03/11 03:37:42;;;;;;;;;;;8.90;93.90;;;;;;5060029;28;20409;-84
2022/03/11 03:40:09;;;;;;;;;;;8.90;93.90;;;;;;5060621;28;20295;-85
2022/03/11 03:42:35;;;;;;;;;;;8.90;93.90;;;;;;5078082;28;19916;-85
2022/03/11 03:45:02;;;;;;;;;;;8.90;94.00;;;;;;5078225;28;19958;-85
2022/03/11 03:47:27;;;;;;;;;;;8.90;94.00;;;;;;5060109;28;20003;-85
2022/03/11 03:49:53;;;;;;;;;;;8.90;94.40;;;;;;5078280;28;19947;-85
2022/03/11 03:52:19;;;;;;;;;;;8.90;94.10;;;;;;5077705;28;19951;-85
2022/03/11 03:54:44;;;;;;;;;;;8.90;94.10;;;;;;5078031;28;19912;-85
2022/03/11 03:57:10;;;;;;;;;;;8.90;94.10;;;;;;5059906;28;19909;-84
2022/03/11 03:59:38;;;;;;;;;;;9.00;94.10;;;;;;5078405;28;19997;-84
2022/03/11 04:02:04;;;;;;;;;;;8.90;94.00;;;;;;5078057;28;19935;-85
2022/03/11 04:04:30;;;;;;;;;;;8.90;94.00;;;;;;5059771;28;19909;-85
2022/03/11 04:06:56;;;;;;;;;;;8.90;93.90;;;;;;5077806;28;19952;-86
2022/03/11 04:09:21;;;;;;;;;;;9.00;94.00;;;;;;5077558;28;20000;-85
2022/03/11 04:11:47;;;;;;;;;;;8.90;94.00;;;;;;5077831;28;19915;-85
2022/03/11 04:14:13;;;;;;;;;;;8.90;94.00;;;;;;5077887;28;19916;-84
2022/03/11 04:16:38;;;;;;;;;;;9.00;94.00;;;;;;5077760;28;19963;-85
2022/03/11 04:19:04;;;;;;;;;;;9.00;94.00;;;;;;5059816;28;19944;-84
2022/03/11 04:21:30;;;;;;;;;;;9.00;94.10;;;;;;5077731;28;19920;-85
2022/03/11 04:23:56;;;;;;;;;;;9.00;94.00;;;;;;5077364;28;20287;-85
2022/03/11 04:26:21;;;;;;;;;;;9.00;94.10;;;;;;5077669;28;19908;-84
2022/03/11 04:28:47;;;;;;;;;;;9.00;94.00;;;;;;5077721;28;19915;-84
2022/03/11 04:31:13;;;;;;;;;;;9.00;94.10;;;;;;5058481;28;19972;-85
2022/03/11 04:33:39;;;;;;;;;;;9.10;94.10;;;;;;5074053;28;19915;-85
2022/03/11 04:36:06;;;;;;;;;;;9.00;94.10;;;;;;5059434;28;19908;-84
2022/03/11 04:38:32;;;;;;;;;;;9.00;94.10;;;;;;5077534;28;19948;-85
2022/03/11 04:40:58;;;;;;;;;;;9.10;94.10;;;;;;5059098;28;19913;-85
2022/03/11 04:43:23;;;;;;;;;;;9.10;94.10;;;;;;5077506;28;20003;-85
2022/03/11 04:45:49;;;;;;;;;;;9.10;94.00;;;;;;5077267;28;19928;-84
2022/03/11 04:48:15;;;;;;;;;;;9.10;94.00;;;;;;5077626;28;19909;-84
2022/03/11 04:50:40;;;;;;;;;;;9.10;93.90;;;;;;5077425;28;19915;-84
2022/03/11 04:53:06;;;;;;;;;;;9.00;93.90;;;;;;5059493;28;19908;-84
2022/03/11 04:55:32;;;;;;;;;;;9.10;93.90;;;;;;5077285;28;19935;-85
2022/03/11 04:58:00;;;;;;;;;;;9.10;93.90;;;;;;5076667;28;20208;-84
2022/03/11 05:00:25;;;;;;;;;;;9.00;93.90;;;;;;5077268;28;19909;-84
2022/03/11 05:02:52;;;;;;;;;;;9.10;94.00;;;;;;5079292;28;20049;-84
2022/03/11 05:05:18;;;;;;;;;;;9.10;93.90;;;;;;5092347;28;19913;-84
2022/03/11 05:07:43;;;;;;;;;;;9.10;94.00;;;;;;5062949;28;19991;-84
2022/03/11 05:10:10;;;;;;;;;;;9.10;93.90;;;;;;5080995;28;20451;-85
2022/03/11 05:12:37;;;;;;;;;;;9.10;93.90;;;;;;5081163;28;19909;-84
2022/03/11 05:15:04;;;;;;;;;;;9.10;93.80;;;;;;5080979;28;19912;-85
2022/03/11 05:17:29;;;;;;;;;;;9.00;93.90;;;;;;5081000;28;19916;-85
2022/03/11 05:19:55;;;;;;;;;;;9.10;93.80;;;;;;5081134;28;20261;-85
2022/03/11 05:22:21;;;;;;;;;;;9.00;93.70;;;;;;5062598;28;19916;-85
2022/03/11 05:24:47;;;;;;;;;;;9.10;93.80;;;;;;5080666;28;19909;-85
2022/03/11 05:27:12;;;;;;;;;;;9.10;93.80;;;;;;5080846;28;20302;-85
2022/03/11 05:29:39;;;;;;;;;;;9.10;93.80;;;;;;5080641;28;19912;-84
2022/03/11 05:32:06;;;;;;;;;;;9.10;93.90;;;;;;5075832;28;19912;-85
2022/03/11 05:34:31;;;;;;;;;;;9.10;94.00;;;;;;5080781;28;19908;-84
2022/03/11 05:36:57;;;;;;;;;;;9.20;94.00;;;;;;5080723;28;19968;-86
2022/03/11 05:39:22;;;;;;;;;;;9.20;94.00;;;;;;5078364;28;19989;-82
2022/03/11 05:41:48;;;;;;;;;;;9.20;94.00;;;;;;5080538;28;19958;-85
2022/03/11 05:44:16;;;;;;;;;;;9.20;93.90;;;;;;5080390;28;19934;-78
2022/03/11 05:46:42;;;;;;;;;;;9.20;93.90;;;;;;5080258;28;19920;-83
2022/03/11 05:49:08;;;;;;;;;;;9.20;93.80;;;;;;5080414;28;19951;-79
2022/03/11 05:51:33;;;;;;;;;;;9.30;93.80;;;;;;5080739;28;19909;-77
2022/03/11 05:53:59;;;;;;;;;;;9.30;93.90;;;;;;5079803;28;19954;-79
2022/03/11 05:56:25;;;;;;;;;;;9.30;93.80;;;;;;5080433;28;19909;-81
2022/03/11 05:58:50;;;;;;;;;;;9.40;93.90;;;;;;5080528;28;19974;-79
2022/03/11 06:01:17;;;;;;;;;;;9.30;93.80;;;;;;5080058;28;20383;-79
2022/03/11 06:03:42;;;;;;;;;;;9.40;93.80;;;;;;5079969;28;20438;-79
2022/03/11 06:06:08;;;;;;;;;;;9.40;93.80;;;;;;5080358;28;19948;-79
2022/03/11 06:08:33;;;;;;;;;;;9.40;93.80;;;;;;5079671;28;19908;-77
2022/03/11 06:10:59;;;;;;;;;;;9.50;93.90;;;;;;5061939;28;19995;-77
2022/03/11 06:13:25;;;;;;;;;;;9.50;93.90;;;;;;5078888;28;19922;-77
2022/03/11 06:15:50;;;;;;;;;;;9.50;94.00;;;;;;5079834;28;19915;-72
2022/03/11 06:18:18;;;;;;;;;;;9.40;94.00;;;;;;5079824;28;19943;-78
2022/03/11 06:20:44;;;;;;;;;;;9.50;94.10;;;;;;5080039;28;19915;-80
2022/03/11 06:23:10;;;;;;;;;;;9.50;94.30;;;;;;5061322;28;20390;-79
2022/03/11 06:25:36;;;;;;;;;;;9.50;94.40;;;;;;5061739;28;19944;-80
2022/03/11 06:28:01;;;;;;;;;;;9.50;94.50;;;;;;5079529;28;19908;-79
2022/03/11 06:30:27;;;;;;;;;;;9.40;94.50;;;;;;5061618;28;20274;-80
2022/03/11 06:32:53;;;;;;;;;;;9.50;94.50;;;;;;5074780;28;19908;-80
2022/03/11 06:35:19;;;;;;;;;;;9.40;94.60;;;;;;5061731;28;19913;-81
2022/03/11 06:37:45;;;;;;;;;;;9.50;94.60;;;;;;5079287;28;20261;-80
2022/03/11 06:40:11;;;;;;;;;;;9.50;94.60;;;;;;5077873;28;19908;-79
2022/03/11 06:42:38;;;;;;;;;;;9.40;94.60;;;;;;5079157;28;19920;-79
2022/03/11 06:45:05;;;;;;;;;;;9.50;94.60;;;;;;5079307;28;19923;-79
2022/03/11 06:47:31;;;;;;;;;;;9.50;94.70;;;;;;5079258;28;19908;-79
2022/03/11 06:49:56;;;;;;;;;;;9.50;94.70;;;;;;5061598;28;20268;-78
2022/03/11 06:52:22;;;;;;;;;;;9.50;94.70;;;;;;5078878;28;19958;-77
2022/03/11 06:54:48;;;;;;;;;;;9.60;94.80;;;;;;5079114;28;20003;-77
2022/03/11 06:57:15;;;;;;;;;;;9.60;94.80;;;;;;5079267;28;19920;-78
2022/03/11 06:59:43;;;;;;;;;;;9.60;94.80;;;;;;5078346;28;19915;-78
2022/03/11 07:02:08;;;;;;;;;;;9.60;94.70;;;;;;5077712;28;19913;-77
2022/03/11 07:04:34;;;;;;;;;;;9.60;94.80;;;;;;5074008;28;19908;-77
2022/03/11 07:07:00;;;;;;;;;;;9.60;94.80;;;;;;5059604;28;19908;-77
2022/03/11 07:09:26;;;;;;;;;;;9.60;94.80;;;;;;5078662;28;19914;-76
2022/03/11 07:11:57;;;;;;;;;;;9.70;94.70;;;;;;5060764;28;19908;-77
2022/03/11 07:14:26;;;;;;;;;;;9.70;94.90;;;;;;5060847;28;20329;-78
2022/03/11 07:16:52;;;;;;;;;;;9.70;95.00;;;;;;5078590;28;19908;-78
2022/03/11 07:19:18;;;;;;;;;;;9.70;94.90;;;;;;5060761;28;19912;-78
2022/03/11 07:21:44;;;;;;;;;;;9.70;95.00;;;;;;5078441;28;19999;-78
2022/03/11 07:24:10;;;;;;;;;;;9.70;95.20;;;;;;5078233;28;19943;-78
2022/03/11 07:26:35;;;;;;;;;;;9.70;95.30;;;;;;5078029;28;19963;-77
2022/03/11 07:29:02;;;;;;;;;;;9.70;95.50;;;;;;5078844;28;19908;-78
2022/03/11 07:31:27;;;;;;;;;;;9.80;95.50;;;;;;5075087;28;20427;-77
2022/03/11 07:33:53;;;;;;;;;;;9.80;95.70;;;;;;5076798;28;19963;-77
2022/03/11 07:36:19;;;;;;;;;;;9.80;95.80;;;;;;5060550;28;19958;-78
2022/03/11 07:38:45;;;;;;;;;;;9.80;95.90;;;;;;5078150;28;19933;-78
2022/03/11 07:41:14;;;;;;;;;;;9.80;95.90;;;;;;5076588;28;19955;-78
2022/03/11 07:43:42;;;;;;;;;;;9.90;96.10;;;;;;5078166;28;20346;-78
2022/03/11 07:46:08;;;;;;;;;;;9.90;96.20;;;;;;5077935;28;19920;-78
2022/03/11 07:48:34;;;;;;;;;;;9.90;96.40;;;;;;5078276;28;19908;-78
2022/03/11 07:51:02;;;;;;;;;;;9.80;96.40;;;;;;5078021;28;19909;-79
2022/03/11 07:53:27;;;;;;;;;;;9.90;96.50;;;;;;5077809;28;19908;-79
2022/03/11 07:55:53;;;;;;;;;;;9.90;96.40;;;;;;5077748;28;19920;-80
2022/03/11 07:58:21;;;;;;;;;;;9.90;96.50;;;;;;5078195;28;20004;-81
2022/03/11 08:00:53;;;;;;;;;;;9.90;96.60;;;;;;5059789;28;19942;-82
2022/03/11 08:03:19;;;;;;;;;;;9.90;96.70;;;;;;5077770;28;19912;-78
2022/03/11 08:05:45;;;;;;;;;;;9.90;96.60;;;;;;5060018;28;19912;-82
2022/03/11 08:08:11;;;;;;;;;;;9.90;96.60;;;;;;5059795;28;19908;-82
2022/03/11 08:10:37;;;;;;;;;;;9.90;96.50;;;;;;5060071;28;19931;-81
2022/03/11 08:13:04;;;;;;;;;;;10.00;96.60;;;;;;5060123;28;19908;-83
2022/03/11 08:15:29;;;;;;;;;;;10.00;96.60;;;;;;5077693;28;20367;-82
2022/03/11 08:17:55;;;;;;;;;;;10.00;96.80;;;;;;5077343;28;19913;-80
2022/03/11 08:20:21;;;;;;;;;;;10.10;96.90;;;;;;5057631;28;19913;-81
2022/03/11 08:22:48;;;;;;;;;;;10.10;97.00;;;;;;5058927;28;19913;-82
2022/03/11 08:25:15;;;;;;;;;;;10.10;96.90;;;;;;5077645;28;19908;-82
2022/03/11 08:27:40;;;;;;;;;;;10.10;96.90;;;;;;5077800;28;19908;-83
2022/03/11 08:30:06;;;;;;;;;;;10.10;96.90;;;;;;5046665;28;19931;-83
2022/03/11 08:32:33;;;;;;;;;;;10.20;96.90;;;;;;5072783;28;19981;-80
2022/03/11 08:34:58;;;;;;;;;;;10.20;97.00;;;;;;5077487;28;20012;-81
2022/03/11 08:37:24;;;;;;;;;;;10.20;96.90;;;;;;5076992;28;19952;-80
2022/03/11 08:39:50;;;;;;;;;;;10.30;96.90;;;;;;5079857;28;20386;-80
2022/03/11 08:42:16;;;;;;;;;;;10.30;96.80;;;;;;5081340;28;19913;-80
2022/03/11 08:44:42;;;;;;;;;;;10.30;96.70;;;;;;5081487;28;19908;-81
2022/03/11 08:47:08;;;;;;;;;;;10.40;96.70;;;;;;5081466;28;19920;-81
2022/03/11 08:49:34;;;;;;;;;;;10.40;96.60;;;;;;5081484;28;19909;-81
2022/03/11 08:51:59;;;;;;;;;;;10.40;96.60;;;;;;5081466;28;19915;-79
2022/03/11 08:54:25;;;;;;;;;;;10.50;96.70;;;;;;5081295;28;20003;-80
2022/03/11 08:56:53;;;;;;;;;;;10.40;96.60;;;;;;5081477;28;19908;-81
2022/03/11 08:59:19;;;;;;;;;;;10.40;96.50;;;;;;5081360;28;19916;-81
2022/03/11 09:01:44;;;;;;;;;;;10.40;96.50;;;;;;5063226;28;19912;-81
2022/03/11 09:04:10;;;;;;;;;;;10.50;96.50;;;;;;5081585;28;19909;-82
2022/03/11 09:06:36;;;;;;;;;;;10.50;96.50;;;;;;5063325;28;19908;-82
2022/03/11 09:09:02;;;;;;;;;;;10.50;96.80;;;;;;5081091;28;19909;-82
2022/03/11 09:11:27;;;;;;;;;;;10.50;96.60;;;;;;5081220;28;20382;-82
2022/03/11 09:13:53;;;;;;;;;;;10.50;96.70;;;;;;5081278;28;19909;-81
2022/03/11 09:16:18;;;;;;;;;;;10.50;96.80;;;;;;5081034;28;19916;-81
2022/03/11 09:18:44;;;;;;;;;;;10.50;96.90;;;;;;5063350;28;19908;-81
2022/03/11 09:21:10;;;;;;;;;;;10.50;96.90;;;;;;5080887;28;20003;-81
2022/03/11 09:23:35;;;;;;;;;;;10.50;96.80;;;;;;5063087;28;20416;-81
2022/03/11 09:26:01;;;;;;;;;;;10.50;96.90;;;;;;5062782;28;19908;-81
2022/03/11 09:28:27;;;;;;;;;;;10.60;97.00;;;;;;5081025;28;20382;-81
2022/03/11 09:30:52;;;;;;;;;;;10.60;97.10;;;;;;5063032;28;20383;-81
2022/03/11 09:33:18;;;;;;;;;;;10.70;97.20;;;;;;5075756;28;19908;-80
2022/03/11 09:35:44;;;;;;;;;;;10.80;97.30;;;;;;5080673;28;19909;-81
2022/03/11 09:38:10;;;;;;;;;;;10.80;97.30;;;;;;5080425;28;19973;-81
2022/03/11 09:40:35;;;;;;;;;;;10.90;97.20;;;;;;5078801;28;19924;-81
2022/03/11 09:43:01;;;;;;;;;;;11.00;97.10;;;;;;5080360;28;19979;-81
2022/03/11 09:45:27;;;;;;;;;;;11.10;96.90;;;;;;5080384;28;19927;-80
2022/03/11 09:47:53;;;;;;;;;;;11.10;96.80;;;;;;5080030;28;19908;-81
2022/03/11 09:50:19;;;;;;;;;;;11.10;96.60;;;;;;5062531;28;19908;-81
2022/03/11 09:52:47;;;;;;;;;;;11.10;96.60;;;;;;5079994;28;19908;-82
2022/03/11 09:55:13;;;;;;;;;;;11.20;96.50;;;;;;5080546;28;19909;-81
2022/03/11 09:57:38;;;;;;;;;;;11.10;96.40;;;;;;5062256;28;19916;-81
2022/03/11 10:00:05;;;;;;;;;;;11.10;96.30;;;;;;5080640;28;20003;-81
2022/03/11 10:02:31;;;;;;;;;;;11.20;96.30;;;;;;5079924;28;19912;-81
2022/03/11 10:04:57;;;;;;;;;;;11.10;96.20;;;;;;5080010;28;20398;-81
2022/03/11 10:07:26;;;;;;;;;;;11.20;96.40;;;;;;5079679;28;20065;-82
2022/03/11 10:09:53;;;;;;;;;;;11.20;96.40;;;;;;5080223;28;19913;-80
2022/03/11 10:12:26;;;;;;;;;;;11.20;96.30;;;;;;5079835;28;19930;-80
2022/03/11 10:14:59;;;;;;;;;;;11.20;96.20;;;;;;5061748;28;19908;-81
2022/03/11 10:17:25;;;;;;;;;;;11.20;96.10;;;;;;5061803;28;19913;-79
2022/03/11 10:19:55;;;;;;;;;;;11.20;96.10;;;;;;5061717;28;19915;-80
2022/03/11 10:22:24;;;;;;;;;;;11.20;96.10;;;;;;5079596;28;19920;-81
2022/03/11 10:24:50;;;;;;;;;;;11.20;96.10;;;;;;5061460;28;19908;-80
2022/03/11 10:27:15;;;;;;;;;;;11.20;96.10;;;;;;5062059;28;19920;-80
2022/03/11 10:29:41;;;;;;;;;;;11.20;96.10;;;;;;5079642;28;19908;-80
2022/03/11 10:32:07;;;;;;;;;;;11.20;96.10;;;;;;5074680;28;19915;-79
2022/03/11 10:34:34;;;;;;;;;;;11.10;96.10;;;;;;5079468;28;19915;-79
2022/03/11 10:37:07;;;;;;;;;;;11.20;96.10;;;;;;5079318;28;19909;-80
2022/03/11 10:39:32;;;;;;;;;;;11.20;96.20;;;;;;5060622;28;19916;-80
2022/03/11 10:42:18;;;;;;;;;;;11.20;96.30;;;;;;5061699;28;19917;-82
2022/03/11 10:44:54;;;;;;;;;;;11.20;96.50;;;;;;5078604;28;19942;-80
2022/03/11 10:47:21;;;;;;;;;;;11.20;96.10;;;;;;5079291;28;19920;-80
2022/03/11 10:49:54;;;;;;;;;;;11.20;95.80;;;;;;5079572;28;19955;-80
2022/03/11 10:52:36;;;;;;;;;;;11.20;95.80;;;;;;5078778;28;19917;-80
2022/03/11 10:55:16;;;;;;;;;;;11.30;95.80;;;;;;5061311;28;20010;-81
2022/03/11 10:57:42;;;;;;;;;;;11.30;95.70;;;;;;5079039;28;19908;-80
2022/03/11 11:00:24;;;;;;;;;;;11.40;95.70;;;;;;5078350;28;19908;-80
2022/03/11 11:02:51;;;;;;;;;;;11.40;95.90;;;;;;5067794;28;20090;-79
2022/03/11 11:05:16;;;;;;;;;;;11.90;96.80;;;;;;5074352;28;19987;-80
2022/03/11 11:07:42;;;;;;;;;;;12.60;97.30;;;;;;5078730;28;19936;-80
2022/03/11 11:10:09;;;;;;;;;;;13.40;97.10;;;;;;5060892;28;19913;-79
2022/03/11 11:12:35;;;;;;;;;;;14.10;96.00;;;;;;5061168;28;19916;-80
2022/03/11 11:15:01;;;;;;;;;;;14.70;94.20;;;;;;5060875;28;20363;-79
2022/03/11 11:17:27;;;;;;;;;;;15.00;93.30;;;;;;5079072;28;19909;-80
2022/03/11 11:19:56;;;;;;;;;;;15.40;92.60;;;;;;5060799;28;19916;-79
2022/03/11 11:22:22;;;;;;;;;;;15.60;91.10;;;;;;5060276;28;19924;-80
2022/03/11 11:24:49;;;;;;;;;;;15.50;89.80;;;;;;5078306;28;20386;-80
2022/03/11 11:27:15;;;;;;;;;;;15.30;90.00;;;;;;5060789;28;20007;-79
2022/03/11 11:29:42;;;;;;;;;;;15.20;90.50;;;;;;5078350;28;19956;-78
2022/03/11 11:32:08;;;;;;;;;;;15.20;90.40;;;;;;5055908;28;19912;-78
2022/03/11 11:34:37;;;;;;;;;;;15.30;88.60;;;;;;5078235;28;19908;-78
2022/03/11 11:37:03;;;;;;;;;;;15.10;87.80;;;;;;5078102;28;20003;-79
2022/03/11 11:39:39;;;;;;;;;;;14.90;87.20;;;;;;5059745;28;19913;-79
2022/03/11 11:42:09;;;;;;;;;;;14.60;86.40;;;;;;5078259;28;19962;-79
2022/03/11 11:44:35;;;;;;;;;;;14.40;86.00;;;;;;5078040;28;20283;-79
2022/03/11 11:47:07;;;;;;;;;;;14.20;86.90;;;;;;5078514;28;20371;-79
2022/03/11 11:49:59;;;;;;;;;;;14.20;87.50;;;;;;5061740;28;19916;-77
2022/03/11 11:52:24;;;;;;;;;;;14.20;85.80;;;;;;5054539;28;19972;-76
2022/03/11 11:54:50;;;;;;;;;;;14.30;88.00;;;;;;5077852;28;20366;-77
2022/03/11 11:57:16;;;;;;;;;;;14.60;87.00;;;;;;5072797;28;19961;-76
2022/03/11 11:59:42;;;;;;;;;;;14.90;86.30;;;;;;5078119;28;19908;-83
2022/03/11 12:02:23;;;;;;;;;;;15.00;85.20;;;;;;5077802;28;19920;-83
2022/03/11 12:04:49;;;;;;;;;;;15.30;86.70;;;;;;5050809;28;19909;-80
2022/03/11 12:07:16;;;;;;;;;;;15.70;85.10;;;;;;5076011;28;20315;-80
2022/03/11 12:09:42;;;;;;;;;;;15.90;84.40;;;;;;5077662;28;20337;-80
2022/03/11 12:12:27;;;;;;;;;;;16.10;82.40;;;;;;5077700;28;19908;-80
2022/03/11 12:15:05;;;;;;;;;;;16.10;80.10;;;;;;5059729;28;20037;-79
2022/03/11 12:17:38;;;;;;;;;;;16.10;81.60;;;;;;5077464;28;20390;-78
2022/03/11 12:20:22;;;;;;;;;;;16.10;79.60;;;;;;5077572;28;19915;-79
2022/03/11 12:22:57;;;;;;;;;;;16.00;77.50;;;;;;5074429;28;20456;-79
2022/03/11 12:25:31;;;;;;;;;;;15.80;77.40;;;;;;5077682;28;19916;-79
2022/03/11 12:27:59;;;;;;;;;;;15.60;78.70;;;;;;5077519;28;20346;-79
2022/03/11 12:30:29;;;;;;;;;;;15.30;80.40;;;;;;5077804;28;19909;-79
2022/03/11 12:32:55;;;;;;;;;;;15.00;81.10;;;;;;5075118;28;19913;-79
2022/03/11 12:35:22;;;;;;;;;;;14.60;80.80;;;;;;5077705;28;20499;-78
2022/03/11 12:37:48;;;;;;;;;;;14.40;83.10;;;;;;5077133;28;19908;-79
2022/03/11 12:40:13;;;;;;;;;;;14.40;83.80;;;;;;5075837;28;19972;-79
2022/03/11 12:42:39;;;;;;;;;;;14.50;83.20;;;;;;5077282;28;19917;-78
2022/03/11 12:45:08;;;;;;;;;;;14.40;82.00;;;;;;5077560;28;19929;-79
2022/03/11 12:47:37;;;;;;;;;;;14.40;83.20;;;;;;5077633;28;20395;-81
2022/03/11 12:50:04;;;;;;;;;;;14.40;84.00;;;;;;5077357;28;19909;-80
2022/03/11 12:52:37;;;;;;;;;;;14.50;84.40;;;;;;5077029;28;19916;-80
2022/03/11 12:55:18;;;;;;;;;;;14.50;84.90;;;;;;5077229;28;19934;-81
2022/03/11 12:57:43;;;;;;;;;;;14.70;86.20;;;;;;5069799;28;19908;-80
2022/03/11 13:00:17;;;;;;;;;;;15.00;86.00;;;;;;5077224;28;19909;-80
2022/03/11 13:02:43;;;;;;;;;;;15.30;83.90;;;;;;5077143;28;20331;-81
2022/03/11 13:05:22;;;;;;;;;;;15.50;81.70;;;;;;5077203;28;19986;-79
2022/03/11 13:07:48;;;;;;;;;;;15.50;78.10;;;;;;5076873;28;19922;-79
2022/03/11 13:10:16;;;;;;;;;;;15.50;78.10;;;;;;5077126;28;19908;-81
2022/03/11 13:12:41;;;;;;;;;;;15.40;76.60;;;;;;5077108;28;20362;-78
2022/03/11 13:15:16;;;;;;;;;;;15.40;76.60;;;;;;5077187;28;19954;-79
2022/03/11 13:17:45;;;;;;;;;;;15.30;76.70;;;;;;5077052;28;19915;-79
2022/03/11 13:20:30;;;;;;;;;;;15.30;76.10;;;;;;5077122;28;20291;-79
2022/03/11 13:22:57;;;;;;;;;;;15.20;77.00;;;;;;5077226;28;19916;-78
2022/03/11 13:25:23;;;;;;;;;;;15.30;75.20;;;;;;5080829;28;19997;-80
2022/03/11 13:27:49;;;;;;;;;;;15.40;75.10;;;;;;5080705;28;19916;-78
2022/03/11 13:30:14;;;;;;;;;;;15.50;74.10;;;;;;5062781;28;19908;-79
2022/03/11 13:32:40;;;;;;;;;;;15.50;73.80;;;;;;5075658;28;20313;-78
2022/03/11 13:35:06;;;;;;;;;;;15.60;73.40;;;;;;5080532;28;20371;-80
2022/03/11 13:37:41;;;;;;;;;;;15.50;72.60;;;;;;5080292;28;19908;-78
2022/03/11 13:40:08;;;;;;;;;;;15.40;72.60;;;;;;5072371;28;19963;-79
2022/03/11 13:42:33;;;;;;;;;;;15.30;72.80;;;;;;5080401;28;20352;-80
2022/03/11 13:45:06;;;;;;;;;;;15.20;71.60;;;;;;5080681;28;19915;-80
2022/03/11 13:47:32;;;;;;;;;;;15.20;73.30;;;;;;5080889;28;19912;-81
2022/03/11 13:50:05;;;;;;;;;;;15.20;73.60;;;;;;5080524;28;20347;-78
2022/03/11 13:52:39;;;;;;;;;;;15.30;71.90;;;;;;5080136;28;19913;-81
2022/03/11 13:55:06;;;;;;;;;;;15.40;73.10;;;;;;5080328;28;19955;-78
2022/03/11 13:57:35;;;;;;;;;;;15.40;72.70;;;;;;5074413;28;19908;-78
2022/03/11 14:00:17;;;;;;;;;;;15.40;73.00;;;;;;5062432;28;19955;-79
2022/03/11 14:02:43;;;;;;;;;;;15.30;73.70;;;;;;5073924;28;19919;-79
2022/03/11 14:05:16;;;;;;;;;;;15.20;74.80;;;;;;5080044;28;19908;-79
2022/03/11 14:07:43;;;;;;;;;;;15.20;76.10;;;;;;5079620;28;19909;-79
2022/03/11 14:10:19;;;;;;;;;;;15.20;77.00;;;;;;5079722;28;19959;-80
2022/03/11 14:12:45;;;;;;;;;;;15.20;77.40;;;;;;5079929;28;19955;-80
2022/03/11 14:15:12;;;;;;;;;;;15.30;76.60;;;;;;5079829;28;19959;-80
2022/03/11 14:17:38;;;;;;;;;;;15.30;75.40;;;;;;5079657;28;20367;-80
2022/03/11 14:20:05;;;;;;;;;;;15.30;74.50;;;;;;5079751;28;19908;-81
2022/03/11 14:22:32;;;;;;;;;;;15.30;73.60;;;;;;5079407;28;19965;-79